sensor_id;sensor_type;location;lat;lon;timestamp;temperature;humidity
780;DHT22;373;49.342;8.146;2023-05-15T00:00:58;12.70;81.80
780;DHT22;373;49.342;8.146;2023-05-15T00:03:26;12.60;99.70
780;DHT22;373;49.342;8.146;2023-05-15T00:05:53;12.50;99.90
780;DHT22;373;49.342;8.146;2023-05-15T00:08:21;12.50;99.90
780;DHT22;373;49.342;8.146;2023-05-15T00:10:48;12.50;99.90
780;DHT22;373;49.342;8.146;2023-05-15T00:13:16;12.40;99.90
780;DHT22;373;49.342;8.146;2023-05-15T00:15:43;12.30;99.90
780;DHT22;373;49.342;8.146;2023-05-15T00:18:10;12.40;99.90
780;DHT22;373;49.342;8.146;2023-05-15T00:20:37;12.30;99.90
780;DHT22;373;49.342;8.146;2023-05-15T00:23:04;12.30;99.90
780;DHT22;373;49.342;8.146;2023-05-15T00:25:32;12.30;99.90
780;DHT22;373;49.342;8.146;2023-05-15T00:27:59;12.30;99.90
780;DHT22;373;49.342;8.146;2023-05-15T00:30:28;12.30;99.90
780;DHT22;373;49.342;8.146;2023-05-15T00:32:55;12.30;99.90
780;DHT22;373;49.342;8.146;2023-05-15T00:35:22;12.30;99.90
780;DHT22;373;49.342;8.146;2023-05-15T00:37:50;12.30;99.90
780;DHT22;373;49.342;8.146;2023-05-15T00:40:21;12.40;99.90
780;DHT22;373;49.342;8.146;2023-05-15T00:42:51;12.40;98.10
780;DHT22;373;49.342;8.146;2023-05-15T00:45:19;12.40;98.80
780;DHT22;373;49.342;8.146;2023-05-15T00:47:48;12.40;97.80
780;DHT22;373;49.342;8.146;2023-05-15T00:50:17;12.40;93.40
780;DHT22;373;49.342;8.146;2023-05-15T00:52:45;12.50;96.10
780;DHT22;373;49.342;8.146;2023-05-15T00:55:13;12.40;96.90
780;DHT22;373;49.342;8.146;2023-05-15T00:57:41;12.60;86.10
780;DHT22;373;49.342;8.146;2023-05-15T01:00:11;12.60;58.40
780;DHT22;373;49.342;8.146;2023-05-15T01:02:43;12.60;48.00
780;DHT22;373;49.342;8.146;2023-05-15T01:05:12;12.70;39.20
780;DHT22;373;49.342;8.146;2023-05-15T01:07:43;12.70;30.60
780;DHT22;373;49.342;8.146;2023-05-15T01:10:13;12.70;49.80
780;DHT22;373;49.342;8.146;2023-05-15T01:12:42;12.80;26.90
780;DHT22;373;49.342;8.146;2023-05-15T01:15:11;12.60;39.10
780;DHT22;373;49.342;8.146;2023-05-15T01:17:38;12.50;53.00
780;DHT22;373;49.342;8.146;2023-05-15T01:20:07;12.50;67.20
780;DHT22;373;49.342;8.146;2023-05-15T01:22:52;12.50;67.10
780;DHT22;373;49.342;8.146;2023-05-15T01:25:59;12.50;77.00
780;DHT22;373;49.342;8.146;2023-05-15T01:28:35;12.40;64.00
780;DHT22;373;49.342;8.146;2023-05-15T01:31:09;12.30;83.60
780;DHT22;373;49.342;8.146;2023-05-15T01:33:42;12.30;77.30
780;DHT22;373;49.342;8.146;2023-05-15T01:36:17;12.30;84.30
780;DHT22;373;49.342;8.146;2023-05-15T01:38:48;12.30;87.30
780;DHT22;373;49.342;8.146;2023-05-15T01:41:22;12.10;99.90
780;DHT22;373;49.342;8.146;2023-05-15T01:43:58;12.20;99.90
780;DHT22;373;49.342;8.146;2023-05-15T01:46:28;12.30;93.70
780;DHT22;373;49.342;8.146;2023-05-15T01:48:57;12.20;99.90
780;DHT22;373;49.342;8.146;2023-05-15T01:51:27;12.20;99.90
780;DHT22;373;49.342;8.146;2023-05-15T01:53:56;12.20;95.80
780;DHT22;373;49.342;8.146;2023-05-15T01:56:25;12.20;91.40
780;DHT22;373;49.342;8.146;2023-05-15T01:58:54;12.20;99.90
780;DHT22;373;49.342;8.146;2023-05-15T02:01:25;12.30;94.60
780;DHT22;373;49.342;8.146;2023-05-15T02:03:53;12.40;68.80
780;DHT22;373;49.342;8.146;2023-05-15T02:06:21;12.40;55.60
780;DHT22;373;49.342;8.146;2023-05-15T02:08:52;12.30;89.80
780;DHT22;373;49.342;8.146;2023-05-15T02:11:20;12.20;93.30
780;DHT22;373;49.342;8.146;2023-05-15T02:13:48;12.20;99.30
780;DHT22;373;49.342;8.146;2023-05-15T02:16:17;12.10;99.90
780;DHT22;373;49.342;8.146;2023-05-15T02:18:44;12.10;99.90
780;DHT22;373;49.342;8.146;2023-05-15T02:21:13;12.10;99.90
780;DHT22;373;49.342;8.146;2023-05-15T02:23:41;12.10;99.90
780;DHT22;373;49.342;8.146;2023-05-15T02:26:18;12.00;99.90
780;DHT22;373;49.342;8.146;2023-05-15T02:28:54;12.00;99.90
780;DHT22;373;49.342;8.146;2023-05-15T02:31:32;11.90;99.90
780;DHT22;373;49.342;8.146;2023-05-15T02:34:08;11.90;99.90
780;DHT22;373;49.342;8.146;2023-05-15T02:36:39;11.80;99.90
780;DHT22;373;49.342;8.146;2023-05-15T02:39:10;11.80;99.90
780;DHT22;373;49.342;8.146;2023-05-15T02:41:40;12.10;99.90
780;DHT22;373;49.342;8.146;2023-05-15T02:44:07;12.00;99.90
780;DHT22;373;49.342;8.146;2023-05-15T02:46:38;11.90;99.90
780;DHT22;373;49.342;8.146;2023-05-15T02:49:06;11.80;99.90
780;DHT22;373;49.342;8.146;2023-05-15T02:51:33;11.90;99.90
780;DHT22;373;49.342;8.146;2023-05-15T02:54:01;12.10;99.90
780;DHT22;373;49.342;8.146;2023-05-15T02:56:28;11.90;99.90
780;DHT22;373;49.342;8.146;2023-05-15T02:58:55;11.90;99.90
780;DHT22;373;49.342;8.146;2023-05-15T03:01:22;11.90;99.90
780;DHT22;373;49.342;8.146;2023-05-15T03:03:51;11.90;99.90
780;DHT22;373;49.342;8.146;2023-05-15T03:06:18;11.90;99.90
780;DHT22;373;49.342;8.146;2023-05-15T03:08:45;11.80;99.90
780;DHT22;373;49.342;8.146;2023-05-15T03:11:12;11.90;99.90
780;DHT22;373;49.342;8.146;2023-05-15T03:13:39;11.60;99.90
780;DHT22;373;49.342;8.146;2023-05-15T03:16:06;11.60;99.90
780;DHT22;373;49.342;8.146;2023-05-15T03:18:34;11.60;99.90
780;DHT22;373;49.342;8.146;2023-05-15T03:21:03;11.60;99.90
780;DHT22;373;49.342;8.146;2023-05-15T03:23:30;11.50;99.90
780;DHT22;373;49.342;8.146;2023-05-15T03:25:58;11.50;99.90
780;DHT22;373;49.342;8.146;2023-05-15T03:28:25;11.50;99.90
780;DHT22;373;49.342;8.146;2023-05-15T03:30:53;11.50;99.90
780;DHT22;373;49.342;8.146;2023-05-15T03:33:20;11.40;99.90
780;DHT22;373;49.342;8.146;2023-05-15T03:35:47;11.30;99.90
780;DHT22;373;49.342;8.146;2023-05-15T03:38:18;11.20;99.90
780;DHT22;373;49.342;8.146;2023-05-15T03:40:45;11.10;99.90
780;DHT22;373;49.342;8.146;2023-05-15T03:43:12;11.00;99.90
780;DHT22;373;49.342;8.146;2023-05-15T03:45:40;11.00;99.90
780;DHT22;373;49.342;8.146;2023-05-15T03:48:07;11.20;99.90
780;DHT22;373;49.342;8.146;2023-05-15T03:50:34;10.90;99.90
780;DHT22;373;49.342;8.146;2023-05-15T03:53:02;11.00;99.90
780;DHT22;373;49.342;8.146;2023-05-15T03:55:31;11.10;99.90
780;DHT22;373;49.342;8.146;2023-05-15T03:57:58;11.20;99.90
780;DHT22;373;49.342;8.146;2023-05-15T04:00:25;11.20;99.90
780;DHT22;373;49.342;8.146;2023-05-15T04:02:52;11.20;99.90
780;DHT22;373;49.342;8.146;2023-05-15T04:05:19;11.30;99.90
780;DHT22;373;49.342;8.146;2023-05-15T04:07:47;11.20;99.90
780;DHT22;373;49.342;8.146;2023-05-15T04:10:14;11.20;99.90
780;DHT22;373;49.342;8.146;2023-05-15T04:12:43;11.20;99.90
780;DHT22;373;49.342;8.146;2023-05-15T04:15:14;11.30;99.90
780;DHT22;373;49.342;8.146;2023-05-15T04:17:42;11.50;99.90
780;DHT22;373;49.342;8.146;2023-05-15T04:20:11;11.50;99.90
780;DHT22;373;49.342;8.146;2023-05-15T04:22:38;11.60;99.90
780;DHT22;373;49.342;8.146;2023-05-15T04:25:06;11.70;99.90
780;DHT22;373;49.342;8.146;2023-05-15T04:27:34;11.90;99.90
780;DHT22;373;49.342;8.146;2023-05-15T04:30:03;12.00;99.90
780;DHT22;373;49.342;8.146;2023-05-15T04:32:31;12.10;99.90
780;DHT22;373;49.342;8.146;2023-05-15T04:34:58;12.20;95.90
780;DHT22;373;49.342;8.146;2023-05-15T04:37:31;12.10;99.90
780;DHT22;373;49.342;8.146;2023-05-15T04:39:58;12.20;99.90
780;DHT22;373;49.342;8.146;2023-05-15T04:42:25;12.30;87.60
780;DHT22;373;49.342;8.146;2023-05-15T04:44:52;12.30;73.00
780;DHT22;373;49.342;8.146;2023-05-15T04:47:21;12.40;64.40
780;DHT22;373;49.342;8.146;2023-05-15T04:49:48;12.50;54.70
780;DHT22;373;49.342;8.146;2023-05-15T04:52:16;12.60;51.60
780;DHT22;373;49.342;8.146;2023-05-15T04:54:43;12.70;31.90
780;DHT22;373;49.342;8.146;2023-05-15T04:57:10;12.60;28.60
780;DHT22;373;49.342;8.146;2023-05-15T04:59:38;12.30;54.30
780;DHT22;373;49.342;8.146;2023-05-15T05:02:05;12.40;82.70
780;DHT22;373;49.342;8.146;2023-05-15T05:04:33;12.40;71.30
780;DHT22;373;49.342;8.146;2023-05-15T05:07:00;12.40;93.40
780;DHT22;373;49.342;8.146;2023-05-15T05:09:29;12.50;39.40
780;DHT22;373;49.342;8.146;2023-05-15T05:11:57;12.40;49.80
780;DHT22;373;49.342;8.146;2023-05-15T05:14:25;12.50;52.20
780;DHT22;373;49.342;8.146;2023-05-15T05:16:52;12.70;20.00
780;DHT22;373;49.342;8.146;2023-05-15T05:19:19;12.90;1.00
780;DHT22;373;49.342;8.146;2023-05-15T05:21:48;13.10;1.00
780;DHT22;373;49.342;8.146;2023-05-15T05:24:15;13.20;1.00
780;DHT22;373;49.342;8.146;2023-05-15T05:26:42;13.20;1.00
780;DHT22;373;49.342;8.146;2023-05-15T05:29:10;13.40;1.00
780;DHT22;373;49.342;8.146;2023-05-15T05:31:37;13.60;1.00
780;DHT22;373;49.342;8.146;2023-05-15T05:34:04;13.80;1.00
780;DHT22;373;49.342;8.146;2023-05-15T05:36:32;14.00;1.00
780;DHT22;373;49.342;8.146;2023-05-15T05:39:00;14.40;1.00
780;DHT22;373;49.342;8.146;2023-05-15T05:41:29;14.50;1.00
780;DHT22;373;49.342;8.146;2023-05-15T05:43:56;14.40;1.00
780;DHT22;373;49.342;8.146;2023-05-15T05:46:23;14.30;1.00
780;DHT22;373;49.342;8.146;2023-05-15T05:48:51;14.30;1.00
780;DHT22;373;49.342;8.146;2023-05-15T05:51:18;14.60;1.00
780;DHT22;373;49.342;8.146;2023-05-15T05:53:46;15.00;1.00
780;DHT22;373;49.342;8.146;2023-05-15T05:56:14;15.20;99.90
780;DHT22;373;49.342;8.146;2023-05-15T05:58:41;15.20;99.90
780;DHT22;373;49.342;8.146;2023-05-15T06:01:09;14.80;1.00
780;DHT22;373;49.342;8.146;2023-05-15T06:03:37;14.70;1.00
780;DHT22;373;49.342;8.146;2023-05-15T06:06:05;14.90;1.00
780;DHT22;373;49.342;8.146;2023-05-15T06:08:33;15.00;1.00
780;DHT22;373;49.342;8.146;2023-05-15T06:11:00;15.50;99.90
780;DHT22;373;49.342;8.146;2023-05-15T06:13:29;15.60;48.40
780;DHT22;373;49.342;8.146;2023-05-15T06:15:56;16.10;1.00
780;DHT22;373;49.342;8.146;2023-05-15T06:18:26;16.40;99.90
780;DHT22;373;49.342;8.146;2023-05-15T06:20:53;16.40;1.00
780;DHT22;373;49.342;8.146;2023-05-15T06:23:20;16.30;99.90
780;DHT22;373;49.342;8.146;2023-05-15T06:25:47;16.50;1.00
780;DHT22;373;49.342;8.146;2023-05-15T06:28:14;16.40;99.90
780;DHT22;373;49.342;8.146;2023-05-15T06:30:43;16.20;1.00
780;DHT22;373;49.342;8.146;2023-05-15T06:33:10;15.80;99.90
780;DHT22;373;49.342;8.146;2023-05-15T06:35:37;15.70;99.90
780;DHT22;373;49.342;8.146;2023-05-15T06:38:04;15.80;1.00
780;DHT22;373;49.342;8.146;2023-05-15T06:40:31;15.70;99.90
780;DHT22;373;49.342;8.146;2023-05-15T06:42:58;15.70;1.00
780;DHT22;373;49.342;8.146;2023-05-15T06:45:25;15.80;1.00
780;DHT22;373;49.342;8.146;2023-05-15T06:47:54;15.70;1.00
780;DHT22;373;49.342;8.146;2023-05-15T06:50:21;15.80;99.90
780;DHT22;373;49.342;8.146;2023-05-15T06:52:48;16.30;1.00
780;DHT22;373;49.342;8.146;2023-05-15T06:55:16;16.70;1.00
780;DHT22;373;49.342;8.146;2023-05-15T06:57:43;17.30;13.60
780;DHT22;373;49.342;8.146;2023-05-15T07:00:11;17.90;1.00
780;DHT22;373;49.342;8.146;2023-05-15T07:02:39;18.50;1.00
780;DHT22;373;49.342;8.146;2023-05-15T07:05:07;18.60;1.00
780;DHT22;373;49.342;8.146;2023-05-15T07:07:35;18.80;99.90
780;DHT22;373;49.342;8.146;2023-05-15T07:10:02;18.80;99.90
780;DHT22;373;49.342;8.146;2023-05-15T07:12:29;19.20;77.40
780;DHT22;373;49.342;8.146;2023-05-15T07:14:57;19.80;1.00
780;DHT22;373;49.342;8.146;2023-05-15T07:17:24;20.20;1.00
780;DHT22;373;49.342;8.146;2023-05-15T07:19:52;20.70;1.00
780;DHT22;373;49.342;8.146;2023-05-15T07:22:20;21.00;99.90
780;DHT22;373;49.342;8.146;2023-05-15T07:24:48;21.30;99.90
780;DHT22;373;49.342;8.146;2023-05-15T07:27:15;21.70;99.90
780;DHT22;373;49.342;8.146;2023-05-15T07:29:42;21.90;99.90
780;DHT22;373;49.342;8.146;2023-05-15T07:32:09;22.10;99.90
780;DHT22;373;49.342;8.146;2023-05-15T07:34:36;22.60;99.90
780;DHT22;373;49.342;8.146;2023-05-15T07:37:04;22.80;99.90
780;DHT22;373;49.342;8.146;2023-05-15T07:39:32;22.30;99.90
780;DHT22;373;49.342;8.146;2023-05-15T07:42:00;22.00;99.90
780;DHT22;373;49.342;8.146;2023-05-15T07:44:27;21.40;99.90
780;DHT22;373;49.342;8.146;2023-05-15T07:46:55;20.70;99.90
780;DHT22;373;49.342;8.146;2023-05-15T07:49:22;20.80;99.90
780;DHT22;373;49.342;8.146;2023-05-15T07:51:50;21.40;99.90
780;DHT22;373;49.342;8.146;2023-05-15T07:54:17;20.80;99.90
780;DHT22;373;49.342;8.146;2023-05-15T07:56:46;20.80;99.90
780;DHT22;373;49.342;8.146;2023-05-15T07:59:13;20.90;99.90
780;DHT22;373;49.342;8.146;2023-05-15T08:01:40;20.90;99.90
780;DHT22;373;49.342;8.146;2023-05-15T08:04:08;20.90;99.90
780;DHT22;373;49.342;8.146;2023-05-15T08:06:35;20.80;99.90
780;DHT22;373;49.342;8.146;2023-05-15T08:09:04;21.40;99.90
780;DHT22;373;49.342;8.146;2023-05-15T08:11:31;21.70;99.90
780;DHT22;373;49.342;8.146;2023-05-15T08:13:59;21.70;99.90
780;DHT22;373;49.342;8.146;2023-05-15T08:16:27;21.30;99.90
780;DHT22;373;49.342;8.146;2023-05-15T08:18:54;21.00;99.90
780;DHT22;373;49.342;8.146;2023-05-15T08:21:28;21.40;99.90
780;DHT22;373;49.342;8.146;2023-05-15T08:23:56;21.70;99.90
780;DHT22;373;49.342;8.146;2023-05-15T08:26:23;22.30;99.90
780;DHT22;373;49.342;8.146;2023-05-15T08:28:50;22.60;99.90
780;DHT22;373;49.342;8.146;2023-05-15T08:31:19;22.50;99.90
780;DHT22;373;49.342;8.146;2023-05-15T08:33:46;22.40;99.90
780;DHT22;373;49.342;8.146;2023-05-15T08:36:13;22.30;99.90
780;DHT22;373;49.342;8.146;2023-05-15T08:38:42;22.10;99.90
780;DHT22;373;49.342;8.146;2023-05-15T08:41:13;22.20;99.90
780;DHT22;373;49.342;8.146;2023-05-15T08:43:44;21.70;99.90
780;DHT22;373;49.342;8.146;2023-05-15T08:46:12;21.70;99.90
780;DHT22;373;49.342;8.146;2023-05-15T08:48:41;21.70;99.90
780;DHT22;373;49.342;8.146;2023-05-15T08:51:08;22.20;99.90
780;DHT22;373;49.342;8.146;2023-05-15T08:53:36;22.20;99.90
780;DHT22;373;49.342;8.146;2023-05-15T08:56:04;21.90;99.90
780;DHT22;373;49.342;8.146;2023-05-15T08:58:31;21.60;99.90
780;DHT22;373;49.342;8.146;2023-05-15T09:00:59;21.70;99.90
780;DHT22;373;49.342;8.146;2023-05-15T09:03:27;22.30;99.90
780;DHT22;373;49.342;8.146;2023-05-15T09:05:55;22.70;99.90
780;DHT22;373;49.342;8.146;2023-05-15T09:08:24;23.10;99.90
780;DHT22;373;49.342;8.146;2023-05-15T09:10:52;22.70;99.90
780;DHT22;373;49.342;8.146;2023-05-15T09:13:21;22.00;99.90
780;DHT22;373;49.342;8.146;2023-05-15T09:15:48;21.60;99.90
780;DHT22;373;49.342;8.146;2023-05-15T09:18:17;21.50;99.90
780;DHT22;373;49.342;8.146;2023-05-15T09:20:44;21.20;99.90
780;DHT22;373;49.342;8.146;2023-05-15T09:23:23;20.90;99.90
780;DHT22;373;49.342;8.146;2023-05-15T09:25:51;20.80;99.90
780;DHT22;373;49.342;8.146;2023-05-15T09:28:25;21.20;99.90
780;DHT22;373;49.342;8.146;2023-05-15T09:30:56;21.10;99.90
780;DHT22;373;49.342;8.146;2023-05-15T09:33:30;21.00;99.90
780;DHT22;373;49.342;8.146;2023-05-15T09:35:57;21.40;99.90
780;DHT22;373;49.342;8.146;2023-05-15T09:38:26;21.50;99.90
780;DHT22;373;49.342;8.146;2023-05-15T09:41:01;21.70;99.90
780;DHT22;373;49.342;8.146;2023-05-15T09:43:28;21.60;99.90
780;DHT22;373;49.342;8.146;2023-05-15T09:45:59;21.00;99.90
780;DHT22;373;49.342;8.146;2023-05-15T09:48:27;20.60;99.90
780;DHT22;373;49.342;8.146;2023-05-15T09:50:55;20.70;99.90
780;DHT22;373;49.342;8.146;2023-05-15T09:53:23;21.00;99.90
780;DHT22;373;49.342;8.146;2023-05-15T09:55:52;20.80;99.90
780;DHT22;373;49.342;8.146;2023-05-15T09:58:19;20.50;99.90
780;DHT22;373;49.342;8.146;2023-05-15T10:00:47;20.30;99.90
780;DHT22;373;49.342;8.146;2023-05-15T10:03:16;20.00;99.90
780;DHT22;373;49.342;8.146;2023-05-15T10:05:44;19.80;99.90
780;DHT22;373;49.342;8.146;2023-05-15T10:08:11;19.80;99.90
780;DHT22;373;49.342;8.146;2023-05-15T10:10:40;19.80;99.90
780;DHT22;373;49.342;8.146;2023-05-15T10:13:10;20.00;99.90
780;DHT22;373;49.342;8.146;2023-05-15T10:15:38;20.20;99.90
780;DHT22;373;49.342;8.146;2023-05-15T10:18:06;20.50;99.90
780;DHT22;373;49.342;8.146;2023-05-15T10:20:33;20.50;1.00
780;DHT22;373;49.342;8.146;2023-05-15T10:23:03;19.70;99.90
780;DHT22;373;49.342;8.146;2023-05-15T10:25:40;19.10;88.80
780;DHT22;373;49.342;8.146;2023-05-15T10:28:10;18.50;1.00
780;DHT22;373;49.342;8.146;2023-05-15T10:30:38;18.10;1.00
780;DHT22;373;49.342;8.146;2023-05-15T10:33:06;17.80;1.00
780;DHT22;373;49.342;8.146;2023-05-15T10:35:33;17.80;1.00
780;DHT22;373;49.342;8.146;2023-05-15T10:38:03;18.20;1.00
780;DHT22;373;49.342;8.146;2023-05-15T10:40:31;18.40;99.20
780;DHT22;373;49.342;8.146;2023-05-15T10:42:59;18.50;99.90
780;DHT22;373;49.342;8.146;2023-05-15T10:45:28;18.10;99.90
780;DHT22;373;49.342;8.146;2023-05-15T10:47:56;17.70;1.00
780;DHT22;373;49.342;8.146;2023-05-15T10:50:23;17.80;1.00
780;DHT22;373;49.342;8.146;2023-05-15T10:52:51;18.30;1.00
780;DHT22;373;49.342;8.146;2023-05-15T10:55:18;18.70;1.00
780;DHT22;373;49.342;8.146;2023-05-15T10:57:45;19.10;99.90
780;DHT22;373;49.342;8.146;2023-05-15T11:00:27;19.90;1.00
780;DHT22;373;49.342;8.146;2023-05-15T11:02:56;20.50;1.00
780;DHT22;373;49.342;8.146;2023-05-15T11:05:24;21.10;1.00
780;DHT22;373;49.342;8.146;2023-05-15T11:08:22;21.60;99.90
780;DHT22;373;49.342;8.146;2023-05-15T11:10:52;21.50;99.90
780;DHT22;373;49.342;8.146;2023-05-15T11:13:19;21.70;1.00
780;DHT22;373;49.342;8.146;2023-05-15T11:15:48;21.60;1.00
780;DHT22;373;49.342;8.146;2023-05-15T11:18:15;21.70;99.90
780;DHT22;373;49.342;8.146;2023-05-15T11:21:04;21.40;99.90
780;DHT22;373;49.342;8.146;2023-05-15T11:23:40;21.90;99.90
780;DHT22;373;49.342;8.146;2023-05-15T11:26:07;21.90;99.90
780;DHT22;373;49.342;8.146;2023-05-15T11:28:41;21.90;99.90
780;DHT22;373;49.342;8.146;2023-05-15T11:31:13;21.80;99.90
780;DHT22;373;49.342;8.146;2023-05-15T11:33:40;22.00;99.90
780;DHT22;373;49.342;8.146;2023-05-15T11:36:08;21.50;99.90
780;DHT22;373;49.342;8.146;2023-05-15T11:38:37;21.10;99.90
780;DHT22;373;49.342;8.146;2023-05-15T11:41:17;21.50;99.90
780;DHT22;373;49.342;8.146;2023-05-15T11:43:44;22.30;99.90
780;DHT22;373;49.342;8.146;2023-05-15T11:46:14;22.80;99.90
780;DHT22;373;49.342;8.146;2023-05-15T11:48:43;23.80;99.90
780;DHT22;373;49.342;8.146;2023-05-15T11:51:16;24.40;99.90
780;DHT22;373;49.342;8.146;2023-05-15T11:53:45;24.60;99.10
780;DHT22;373;49.342;8.146;2023-05-15T11:56:16;24.40;97.70
780;DHT22;373;49.342;8.146;2023-05-15T11:58:47;24.30;99.70
780;DHT22;373;49.342;8.146;2023-05-15T12:01:15;24.00;94.30
780;DHT22;373;49.342;8.146;2023-05-15T12:03:43;23.20;98.10
780;DHT22;373;49.342;8.146;2023-05-15T12:06:12;22.70;96.00
780;DHT22;373;49.342;8.146;2023-05-15T12:08:39;21.90;99.30
780;DHT22;373;49.342;8.146;2023-05-15T12:11:07;21.00;99.90
780;DHT22;373;49.342;8.146;2023-05-15T12:13:34;20.60;99.90
780;DHT22;373;49.342;8.146;2023-05-15T12:16:02;20.10;99.90
780;DHT22;373;49.342;8.146;2023-05-15T12:18:31;19.60;99.90
780;DHT22;373;49.342;8.146;2023-05-15T12:20:59;19.30;99.90
780;DHT22;373;49.342;8.146;2023-05-15T12:23:27;18.90;99.90
780;DHT22;373;49.342;8.146;2023-05-15T12:25:55;18.90;99.90
780;DHT22;373;49.342;8.146;2023-05-15T12:28:23;18.90;99.90
780;DHT22;373;49.342;8.146;2023-05-15T12:30:51;19.00;99.90
780;DHT22;373;49.342;8.146;2023-05-15T12:33:19;19.00;99.90
780;DHT22;373;49.342;8.146;2023-05-15T12:35:52;19.30;99.90
780;DHT22;373;49.342;8.146;2023-05-15T12:38:21;19.30;99.90
780;DHT22;373;49.342;8.146;2023-05-15T12:40:51;19.00;99.90
780;DHT22;373;49.342;8.146;2023-05-15T12:43:19;19.00;99.90
780;DHT22;373;49.342;8.146;2023-05-15T12:45:46;19.10;99.90
780;DHT22;373;49.342;8.146;2023-05-15T12:48:17;19.10;99.90
780;DHT22;373;49.342;8.146;2023-05-15T12:50:44;18.80;99.90
780;DHT22;373;49.342;8.146;2023-05-15T12:53:14;18.80;99.90
780;DHT22;373;49.342;8.146;2023-05-15T12:55:43;19.10;99.90
780;DHT22;373;49.342;8.146;2023-05-15T12:58:12;19.50;99.90
780;DHT22;373;49.342;8.146;2023-05-15T13:00:41;19.70;99.90
780;DHT22;373;49.342;8.146;2023-05-15T13:03:11;19.80;99.90
780;DHT22;373;49.342;8.146;2023-05-15T13:05:41;19.70;99.90
780;DHT22;373;49.342;8.146;2023-05-15T13:08:15;19.80;99.90
780;DHT22;373;49.342;8.146;2023-05-15T13:10:43;19.80;99.90
780;DHT22;373;49.342;8.146;2023-05-15T13:13:11;19.80;99.90
780;DHT22;373;49.342;8.146;2023-05-15T13:15:41;19.90;99.90
780;DHT22;373;49.342;8.146;2023-05-15T13:18:09;19.90;99.90
780;DHT22;373;49.342;8.146;2023-05-15T13:20:38;19.90;99.90
780;DHT22;373;49.342;8.146;2023-05-15T13:23:07;20.10;99.90
780;DHT22;373;49.342;8.146;2023-05-15T13:25:36;20.30;99.90
780;DHT22;373;49.342;8.146;2023-05-15T13:28:05;20.50;99.90
780;DHT22;373;49.342;8.146;2023-05-15T13:30:33;20.80;99.90
780;DHT22;373;49.342;8.146;2023-05-15T13:33:01;21.00;99.90
780;DHT22;373;49.342;8.146;2023-05-15T13:35:28;21.50;99.90
780;DHT22;373;49.342;8.146;2023-05-15T13:37:56;21.90;99.90
780;DHT22;373;49.342;8.146;2023-05-15T13:40:23;22.40;99.90
780;DHT22;373;49.342;8.146;2023-05-15T13:42:51;22.70;93.10
780;DHT22;373;49.342;8.146;2023-05-15T13:45:18;22.90;80.50
780;DHT22;373;49.342;8.146;2023-05-15T13:47:46;23.00;73.70
780;DHT22;373;49.342;8.146;2023-05-15T13:50:14;23.30;70.40
780;DHT22;373;49.342;8.146;2023-05-15T13:52:43;23.70;64.80
780;DHT22;373;49.342;8.146;2023-05-15T13:55:11;23.70;58.80
780;DHT22;373;49.342;8.146;2023-05-15T13:57:40;23.90;56.60
780;DHT22;373;49.342;8.146;2023-05-15T14:00:10;23.60;44.60
780;DHT22;373;49.342;8.146;2023-05-15T14:02:38;24.20;43.60
780;DHT22;373;49.342;8.146;2023-05-15T14:05:07;24.30;39.00
780;DHT22;373;49.342;8.146;2023-05-15T14:07:35;23.90;35.90
780;DHT22;373;49.342;8.146;2023-05-15T14:10:03;23.10;30.10
780;DHT22;373;49.342;8.146;2023-05-15T14:12:31;22.90;32.10
780;DHT22;373;49.342;8.146;2023-05-15T14:14:59;23.20;34.60
780;DHT22;373;49.342;8.146;2023-05-15T14:17:28;23.10;32.30
780;DHT22;373;49.342;8.146;2023-05-15T14:19:55;22.80;31.80
780;DHT22;373;49.342;8.146;2023-05-15T14:22:22;22.70;30.50
780;DHT22;373;49.342;8.146;2023-05-15T14:24:50;23.00;33.80
780;DHT22;373;49.342;8.146;2023-05-15T14:27:17;23.30;35.10
780;DHT22;373;49.342;8.146;2023-05-15T14:29:44;23.40;35.70
780;DHT22;373;49.342;8.146;2023-05-15T14:32:13;23.20;33.50
780;DHT22;373;49.342;8.146;2023-05-15T14:34:42;23.10;34.80
780;DHT22;373;49.342;8.146;2023-05-15T14:37:09;23.00;32.40
780;DHT22;373;49.342;8.146;2023-05-15T14:39:36;23.00;31.50
780;DHT22;373;49.342;8.146;2023-05-15T14:42:04;23.00;34.10
780;DHT22;373;49.342;8.146;2023-05-15T14:44:32;22.90;38.10
780;DHT22;373;49.342;8.146;2023-05-15T14:47:06;22.40;37.70
780;DHT22;373;49.342;8.146;2023-05-15T14:49:33;22.80;43.80
780;DHT22;373;49.342;8.146;2023-05-15T14:52:03;22.90;45.30
780;DHT22;373;49.342;8.146;2023-05-15T14:54:31;22.40;43.30
780;DHT22;373;49.342;8.146;2023-05-15T14:56:58;21.70;48.60
780;DHT22;373;49.342;8.146;2023-05-15T14:59:26;20.50;1.00
780;DHT22;373;49.342;8.146;2023-05-15T15:01:53;19.60;99.90
780;DHT22;373;49.342;8.146;2023-05-15T15:04:20;18.90;1.00
780;DHT22;373;49.342;8.146;2023-05-15T15:06:47;18.20;99.90
780;DHT22;373;49.342;8.146;2023-05-15T15:09:16;17.40;1.00
780;DHT22;373;49.342;8.146;2023-05-15T15:11:44;17.20;1.00
780;DHT22;373;49.342;8.146;2023-05-15T15:14:11;17.10;1.00
780;DHT22;373;49.342;8.146;2023-05-15T15:16:39;17.20;1.00
780;DHT22;373;49.342;8.146;2023-05-15T15:19:06;17.10;1.00
780;DHT22;373;49.342;8.146;2023-05-15T15:21:33;16.90;1.00
780;DHT22;373;49.342;8.146;2023-05-15T15:24:01;16.70;1.00
780;DHT22;373;49.342;8.146;2023-05-15T15:26:29;16.40;1.00
780;DHT22;373;49.342;8.146;2023-05-15T15:28:56;16.30;1.00
780;DHT22;373;49.342;8.146;2023-05-15T15:31:26;16.30;1.80
780;DHT22;373;49.342;8.146;2023-05-15T15:33:53;16.10;33.80
780;DHT22;373;49.342;8.146;2023-05-15T15:36:20;15.90;36.80
780;DHT22;373;49.342;8.146;2023-05-15T15:38:47;15.80;31.40
780;DHT22;373;49.342;8.146;2023-05-15T15:41:14;15.70;14.80
780;DHT22;373;49.342;8.146;2023-05-15T15:43:43;15.70;22.20
780;DHT22;373;49.342;8.146;2023-05-15T15:46:10;15.60;27.40
780;DHT22;373;49.342;8.146;2023-05-15T15:48:37;15.50;47.10
780;DHT22;373;49.342;8.146;2023-05-15T15:51:04;15.60;22.40
780;DHT22;373;49.342;8.146;2023-05-15T15:53:32;15.60;25.50
780;DHT22;373;49.342;8.146;2023-05-15T15:56:04;15.70;23.30
780;DHT22;373;49.342;8.146;2023-05-15T15:58:31;15.80;59.90
780;DHT22;373;49.342;8.146;2023-05-15T16:01:00;16.00;42.70
780;DHT22;373;49.342;8.146;2023-05-15T16:03:27;16.10;14.10
780;DHT22;373;49.342;8.146;2023-05-15T16:05:54;16.10;41.30
780;DHT22;373;49.342;8.146;2023-05-15T16:08:21;16.10;19.80
780;DHT22;373;49.342;8.146;2023-05-15T16:10:48;16.20;38.20
780;DHT22;373;49.342;8.146;2023-05-15T16:13:15;16.20;16.30
780;DHT22;373;49.342;8.146;2023-05-15T16:15:42;16.10;14.80
780;DHT22;373;49.342;8.146;2023-05-15T16:18:10;16.10;28.40
780;DHT22;373;49.342;8.146;2023-05-15T16:20:37;16.10;25.90
780;DHT22;373;49.342;8.146;2023-05-15T16:23:05;16.00;22.10
780;DHT22;373;49.342;8.146;2023-05-15T16:25:34;16.10;8.60
780;DHT22;373;49.342;8.146;2023-05-15T16:28:01;16.10;1.00
780;DHT22;373;49.342;8.146;2023-05-15T16:30:28;16.10;1.00
780;DHT22;373;49.342;8.146;2023-05-15T16:32:55;16.00;1.00
780;DHT22;373;49.342;8.146;2023-05-15T16:35:23;16.10;1.00
780;DHT22;373;49.342;8.146;2023-05-15T16:37:51;16.00;1.00
780;DHT22;373;49.342;8.146;2023-05-15T16:40:18;16.00;9.10
780;DHT22;373;49.342;8.146;2023-05-15T16:42:45;16.00;9.70
780;DHT22;373;49.342;8.146;2023-05-15T16:45:12;16.20;12.60